Saint Clears, United Kingdom
Current Conditions -  °F | °C
As of 11:50 PM on Wednesday 17 Dec 2014 (Local Time) from EGOP Reporting Station
Overcast Overcast  
Wind Chill: 54°   Ceiling: 700
Heat Index: 54°   Visibility: 5mi
Dew Point: 52°   Wind: 29mph
Humidity: 94%   Direction: 260°W
Pressure: 29.83"   Gusts: NA
Location:  51.82°N, 4.5°W
Report Text: EGOP 172350Z AUTO 26025KT 8000 // OVC007/// 12/11 Q1010
Loading
Personal Weather Stations






























Interactive Weather Map New forecast layout! Learn more

10-Day Weather Forecast

Advertisements
Track Severe Weather on mobile